Glasgow, MT

8:21 AM MDT on July 24, 2016 (GMT -0600)
APRSWXNET | | Change Station

Elev 2211 ft 48.19 °N, 106.61 °W | Updated 16 minutes ago

Clear
Clear
64 °F
Feels Like 64 °F
N
3
Wind Variable Wind from NE
Gusts 5.0 mph

Today
High -- | Low -- °F
--% Chance of Precip.
Yesterday
High -- | Low -- °F
Precip. -- in
Pressure 30.03 in
Visibility 10.0 miles
Clouds Clear
Dew Point 56 °F
Humidity 74%
Rainfall in
Snow Depth Not available.
5:32 AM 8:52 PM
Waning Gibbous, 76% visible
METAR KGGW 241353Z AUTO 15005KT 10SM CLR 18/13 A3005 RMK AO2 SLP167 T01780133
Pressure 30.03 in
Visibility 10.0 miles
Clouds Clear
Dew Point 56 °F
Humidity 74%
Rainfall in
Snow Depth Not available.
5:32 AM 8:52 PM
Waning Gibbous, 76% visible
METAR KGGW 241353Z AUTO 15005KT 10SM CLR 18/13 A3005 RMK AO2 SLP167 T01780133

10-Day Weather Forecast

Almanac

Astronomy

Jul. 24, 2016 Rise Set
Actual Time
Civil Twilight
Nautical Twilight
Astronomical Twilight
Moon
Length of Visible Light
Length of Day
Tomorrow will be .
, % of the Moon is Illuminated

Today's Extremes

State Highs State Lows

Community

WunderPhotos

Upload Photos

1,927,062 photos uploaded!

WunderBlog® & News

Nearby

Air Quality

  Air Quality AQ Index Pollutant
Not available.

Snow Depth

Station Depth Elevation

Earthquake Activity

City Distance Mag. Time & Date
Minimum magnitude displayed is 2.5.

Coastal Water Temperatures

Place Temperature

Stations

Nearby Weather Stations

Station Location Temp. Windchill Dew Point Humidity Wind Precip. Elev Updated Type
                   

Watches & Warnings

There are currently no watches in effect.